sensor_id;sensor_type;location;lat;lon;timestamp;temperature;humidity
21807;DHT22;11065;50.786;7.840;2022-11-13T00:02:19;8.70;53.20
21807;DHT22;11065;50.786;7.840;2022-11-13T00:05:05;8.60;53.20
21807;DHT22;11065;50.786;7.840;2022-11-13T00:07:50;8.60;53.10
21807;DHT22;11065;50.786;7.840;2022-11-13T00:10:36;8.60;53.60
21807;DHT22;11065;50.786;7.840;2022-11-13T00:13:21;8.60;53.60
21807;DHT22;11065;50.786;7.840;2022-11-13T00:16:16;8.60;53.20
21807;DHT22;11065;50.786;7.840;2022-11-13T00:19:02;8.60;53.10
21807;DHT22;11065;50.786;7.840;2022-11-13T00:21:48;8.50;53.00
21807;DHT22;11065;50.786;7.840;2022-11-13T00:24:33;8.50;53.00
21807;DHT22;11065;50.786;7.840;2022-11-13T00:27:19;8.50;53.00
21807;DHT22;11065;50.786;7.840;2022-11-13T00:30:04;8.50;53.00
21807;DHT22;11065;50.786;7.840;2022-11-13T00:32:50;8.40;53.10
21807;DHT22;11065;50.786;7.840;2022-11-13T00:35:35;8.40;53.10
21807;DHT22;11065;50.786;7.840;2022-11-13T00:38:21;8.40;53.10
21807;DHT22;11065;50.786;7.840;2022-11-13T00:41:06;8.40;53.20
21807;DHT22;11065;50.786;7.840;2022-11-13T00:43:52;8.30;53.10
21807;DHT22;11065;50.786;7.840;2022-11-13T00:46:37;8.30;53.20
21807;DHT22;11065;50.786;7.840;2022-11-13T00:49:22;8.30;53.20
21807;DHT22;11065;50.786;7.840;2022-11-13T00:52:08;8.30;53.30
21807;DHT22;11065;50.786;7.840;2022-11-13T00:54:53;8.20;53.30
21807;DHT22;11065;50.786;7.840;2022-11-13T00:57:39;8.20;53.40
21807;DHT22;11065;50.786;7.840;2022-11-13T01:00:24;8.20;53.50
21807;DHT22;11065;50.786;7.840;2022-11-13T01:03:10;8.20;53.50
21807;DHT22;11065;50.786;7.840;2022-11-13T01:05:55;8.10;53.40
21807;DHT22;11065;50.786;7.840;2022-11-13T01:08:41;8.10;53.40
21807;DHT22;11065;50.786;7.840;2022-11-13T01:11:28;8.10;53.40
21807;DHT22;11065;50.786;7.840;2022-11-13T01:14:14;8.00;53.50
21807;DHT22;11065;50.786;7.840;2022-11-13T01:16:59;8.00;53.50
21807;DHT22;11065;50.786;7.840;2022-11-13T01:19:45;8.00;53.60
21807;DHT22;11065;50.786;7.840;2022-11-13T01:22:30;8.00;53.60
21807;DHT22;11065;50.786;7.840;2022-11-13T01:25:16;8.00;53.70
21807;DHT22;11065;50.786;7.840;2022-11-13T01:28:02;7.90;53.60
21807;DHT22;11065;50.786;7.840;2022-11-13T01:30:47;7.90;53.60
21807;DHT22;11065;50.786;7.840;2022-11-13T01:33:33;7.90;53.60
21807;DHT22;11065;50.786;7.840;2022-11-13T01:36:22;7.90;53.60
21807;DHT22;11065;50.786;7.840;2022-11-13T01:39:09;7.90;53.70
21807;DHT22;11065;50.786;7.840;2022-11-13T01:41:55;7.90;53.70
21807;DHT22;11065;50.786;7.840;2022-11-13T01:44:49;7.90;53.80
21807;DHT22;11065;50.786;7.840;2022-11-13T01:47:35;7.80;53.80
21807;DHT22;11065;50.786;7.840;2022-11-13T01:50:21;7.80;53.70
21807;DHT22;11065;50.786;7.840;2022-11-13T01:53:06;7.80;53.80
21807;DHT22;11065;50.786;7.840;2022-11-13T01:55:52;7.70;53.80
21807;DHT22;11065;50.786;7.840;2022-11-13T01:58:40;7.70;53.80
21807;DHT22;11065;50.786;7.840;2022-11-13T02:01:26;7.70;53.80
21807;DHT22;11065;50.786;7.840;2022-11-13T02:04:12;7.70;53.90
21807;DHT22;11065;50.786;7.840;2022-11-13T02:07:03;7.60;53.90
21807;DHT22;11065;50.786;7.840;2022-11-13T02:09:50;7.60;54.00
21807;DHT22;11065;50.786;7.840;2022-11-13T02:12:40;7.60;53.90
21807;DHT22;11065;50.786;7.840;2022-11-13T02:15:27;7.60;54.00
21807;DHT22;11065;50.786;7.840;2022-11-13T02:18:16;7.60;54.00
21807;DHT22;11065;50.786;7.840;2022-11-13T02:21:15;7.50;54.00
21807;DHT22;11065;50.786;7.840;2022-11-13T02:24:20;7.50;54.10
21807;DHT22;11065;50.786;7.840;2022-11-13T02:30:14;7.50;54.30
21807;DHT22;11065;50.786;7.840;2022-11-13T02:33:01;7.50;54.00
21807;DHT22;11065;50.786;7.840;2022-11-13T02:35:46;7.40;54.00
21807;DHT22;11065;50.786;7.840;2022-11-13T02:38:34;7.40;54.00
21807;DHT22;11065;50.786;7.840;2022-11-13T02:41:20;7.40;54.10
21807;DHT22;11065;50.786;7.840;2022-11-13T02:44:06;7.40;54.00
21807;DHT22;11065;50.786;7.840;2022-11-13T02:46:51;7.30;54.10
21807;DHT22;11065;50.786;7.840;2022-11-13T02:49:37;7.30;54.10
21807;DHT22;11065;50.786;7.840;2022-11-13T02:52:22;7.30;54.10
21807;DHT22;11065;50.786;7.840;2022-11-13T02:58:19;7.30;54.20
21807;DHT22;11065;50.786;7.840;2022-11-13T03:01:05;7.20;54.00
21807;DHT22;11065;50.786;7.840;2022-11-13T03:03:51;7.20;54.10
21807;DHT22;11065;50.786;7.840;2022-11-13T03:06:44;7.20;54.10
21807;DHT22;11065;50.786;7.840;2022-11-13T03:09:29;7.20;54.10
21807;DHT22;11065;50.786;7.840;2022-11-13T03:12:14;7.10;54.10
21807;DHT22;11065;50.786;7.840;2022-11-13T03:15:00;7.10;54.10
21807;DHT22;11065;50.786;7.840;2022-11-13T03:17:45;7.10;54.10
21807;DHT22;11065;50.786;7.840;2022-11-13T03:20:31;7.10;54.10
21807;DHT22;11065;50.786;7.840;2022-11-13T03:23:17;7.10;54.10
21807;DHT22;11065;50.786;7.840;2022-11-13T03:26:07;7.00;54.10
21807;DHT22;11065;50.786;7.840;2022-11-13T03:28:53;7.00;54.10
21807;DHT22;11065;50.786;7.840;2022-11-13T03:31:39;7.00;54.10
21807;DHT22;11065;50.786;7.840;2022-11-13T03:34:24;7.00;54.10
21807;DHT22;11065;50.786;7.840;2022-11-13T03:37:10;6.90;54.00
21807;DHT22;11065;50.786;7.840;2022-11-13T03:39:55;6.90;54.10
21807;DHT22;11065;50.786;7.840;2022-11-13T03:42:41;6.90;54.10
21807;DHT22;11065;50.786;7.840;2022-11-13T03:45:26;6.90;54.10
21807;DHT22;11065;50.786;7.840;2022-11-13T03:48:13;6.80;54.10
21807;DHT22;11065;50.786;7.840;2022-11-13T03:50:59;6.80;54.20
21807;DHT22;11065;50.786;7.840;2022-11-13T03:53:45;6.80;54.10
21807;DHT22;11065;50.786;7.840;2022-11-13T03:56:30;6.80;54.50
21807;DHT22;11065;50.786;7.840;2022-11-13T03:59:16;6.80;54.20
21807;DHT22;11065;50.786;7.840;2022-11-13T04:02:01;6.70;54.20
21807;DHT22;11065;50.786;7.840;2022-11-13T04:04:47;6.70;54.20
21807;DHT22;11065;50.786;7.840;2022-11-13T04:07:32;6.70;54.20
21807;DHT22;11065;50.786;7.840;2022-11-13T04:10:18;6.70;54.20
21807;DHT22;11065;50.786;7.840;2022-11-13T04:13:03;6.70;54.30
21807;DHT22;11065;50.786;7.840;2022-11-13T04:15:48;6.60;54.20
21807;DHT22;11065;50.786;7.840;2022-11-13T04:18:34;6.60;54.20
21807;DHT22;11065;50.786;7.840;2022-11-13T04:21:19;6.60;54.40
21807;DHT22;11065;50.786;7.840;2022-11-13T04:24:05;6.60;54.50
21807;DHT22;11065;50.786;7.840;2022-11-13T04:26:50;6.50;54.40
21807;DHT22;11065;50.786;7.840;2022-11-13T04:29:35;6.50;54.40
21807;DHT22;11065;50.786;7.840;2022-11-13T04:32:21;6.50;54.30
21807;DHT22;11065;50.786;7.840;2022-11-13T04:35:07;6.50;54.30
21807;DHT22;11065;50.786;7.840;2022-11-13T04:37:52;6.50;54.40
21807;DHT22;11065;50.786;7.840;2022-11-13T04:40:39;6.50;54.30
21807;DHT22;11065;50.786;7.840;2022-11-13T04:43:24;6.50;54.30
21807;DHT22;11065;50.786;7.840;2022-11-13T04:46:10;6.40;54.30
21807;DHT22;11065;50.786;7.840;2022-11-13T04:48:55;6.40;54.30
21807;DHT22;11065;50.786;7.840;2022-11-13T04:51:41;6.40;54.40
21807;DHT22;11065;50.786;7.840;2022-11-13T04:54:26;6.40;54.30
21807;DHT22;11065;50.786;7.840;2022-11-13T04:57:13;6.40;54.40
21807;DHT22;11065;50.786;7.840;2022-11-13T04:59:59;6.40;54.40
21807;DHT22;11065;50.786;7.840;2022-11-13T05:02:44;6.30;54.30
21807;DHT22;11065;50.786;7.840;2022-11-13T05:05:29;6.30;54.30
21807;DHT22;11065;50.786;7.840;2022-11-13T05:08:15;6.30;54.40
21807;DHT22;11065;50.786;7.840;2022-11-13T05:11:00;6.30;54.40
21807;DHT22;11065;50.786;7.840;2022-11-13T05:13:46;6.30;54.40
21807;DHT22;11065;50.786;7.840;2022-11-13T05:16:34;6.20;54.40
21807;DHT22;11065;50.786;7.840;2022-11-13T05:19:20;6.20;54.40
21807;DHT22;11065;50.786;7.840;2022-11-13T05:22:05;6.20;54.40
21807;DHT22;11065;50.786;7.840;2022-11-13T05:24:51;6.20;54.40
21807;DHT22;11065;50.786;7.840;2022-11-13T05:27:36;6.20;54.40
21807;DHT22;11065;50.786;7.840;2022-11-13T05:30:22;6.10;54.40
21807;DHT22;11065;50.786;7.840;2022-11-13T05:33:07;6.10;54.40
21807;DHT22;11065;50.786;7.840;2022-11-13T05:35:53;6.10;54.40
21807;DHT22;11065;50.786;7.840;2022-11-13T05:38:38;6.10;54.40
21807;DHT22;11065;50.786;7.840;2022-11-13T05:41:24;6.10;54.40
21807;DHT22;11065;50.786;7.840;2022-11-13T05:44:10;6.00;54.40
21807;DHT22;11065;50.786;7.840;2022-11-13T05:46:55;6.00;54.40
21807;DHT22;11065;50.786;7.840;2022-11-13T05:49:41;6.00;54.40
21807;DHT22;11065;50.786;7.840;2022-11-13T05:52:26;6.00;54.40
21807;DHT22;11065;50.786;7.840;2022-11-13T05:55:11;6.00;54.50
21807;DHT22;11065;50.786;7.840;2022-11-13T05:57:57;6.00;54.50
21807;DHT22;11065;50.786;7.840;2022-11-13T06:00:43;6.00;54.50
21807;DHT22;11065;50.786;7.840;2022-11-13T06:03:28;6.00;54.50
21807;DHT22;11065;50.786;7.840;2022-11-13T06:06:15;5.90;54.50
21807;DHT22;11065;50.786;7.840;2022-11-13T06:09:04;5.90;54.50
21807;DHT22;11065;50.786;7.840;2022-11-13T06:11:49;5.90;54.50
21807;DHT22;11065;50.786;7.840;2022-11-13T06:14:35;5.90;54.50
21807;DHT22;11065;50.786;7.840;2022-11-13T06:17:20;5.90;54.50
21807;DHT22;11065;50.786;7.840;2022-11-13T06:20:06;5.90;54.50
21807;DHT22;11065;50.786;7.840;2022-11-13T06:22:52;5.90;54.50
21807;DHT22;11065;50.786;7.840;2022-11-13T06:25:37;5.80;54.40
21807;DHT22;11065;50.786;7.840;2022-11-13T06:28:22;5.80;54.40
21807;DHT22;11065;50.786;7.840;2022-11-13T06:31:10;5.80;54.40
21807;DHT22;11065;50.786;7.840;2022-11-13T06:33:57;5.80;54.40
21807;DHT22;11065;50.786;7.840;2022-11-13T06:36:44;5.80;54.40
21807;DHT22;11065;50.786;7.840;2022-11-13T06:39:29;5.80;54.40
21807;DHT22;11065;50.786;7.840;2022-11-13T06:42:15;5.70;54.30
21807;DHT22;11065;50.786;7.840;2022-11-13T06:45:00;5.70;54.40
21807;DHT22;11065;50.786;7.840;2022-11-13T06:47:46;5.70;54.40
21807;DHT22;11065;50.786;7.840;2022-11-13T06:50:31;5.70;54.50
21807;DHT22;11065;50.786;7.840;2022-11-13T06:53:16;5.70;54.50
21807;DHT22;11065;50.786;7.840;2022-11-13T06:56:04;5.70;54.50
21807;DHT22;11065;50.786;7.840;2022-11-13T06:58:50;5.70;54.60
21807;DHT22;11065;50.786;7.840;2022-11-13T07:01:35;5.70;54.60
21807;DHT22;11065;50.786;7.840;2022-11-13T07:04:21;5.70;54.60
21807;DHT22;11065;50.786;7.840;2022-11-13T07:07:06;5.70;54.60
21807;DHT22;11065;50.786;7.840;2022-11-13T07:09:51;5.70;54.60
21807;DHT22;11065;50.786;7.840;2022-11-13T07:12:37;5.70;54.60
21807;DHT22;11065;50.786;7.840;2022-11-13T07:15:23;5.70;54.60
21807;DHT22;11065;50.786;7.840;2022-11-13T07:18:08;5.70;54.50
21807;DHT22;11065;50.786;7.840;2022-11-13T07:20:53;5.70;54.50
21807;DHT22;11065;50.786;7.840;2022-11-13T07:23:39;5.70;54.60
21807;DHT22;11065;50.786;7.840;2022-11-13T07:26:27;5.60;54.60
21807;DHT22;11065;50.786;7.840;2022-11-13T07:29:12;5.70;54.60
21807;DHT22;11065;50.786;7.840;2022-11-13T07:31:58;5.70;54.70
21807;DHT22;11065;50.786;7.840;2022-11-13T07:34:44;5.60;54.70
21807;DHT22;11065;50.786;7.840;2022-11-13T07:37:29;5.60;54.70
21807;DHT22;11065;50.786;7.840;2022-11-13T07:40:15;5.60;54.70
21807;DHT22;11065;50.786;7.840;2022-11-13T07:43:02;5.70;54.80
21807;DHT22;11065;50.786;7.840;2022-11-13T07:45:47;5.70;54.80
21807;DHT22;11065;50.786;7.840;2022-11-13T07:48:38;5.70;54.80
21807;DHT22;11065;50.786;7.840;2022-11-13T07:51:24;5.70;54.90
21807;DHT22;11065;50.786;7.840;2022-11-13T07:54:09;5.70;54.90
21807;DHT22;11065;50.786;7.840;2022-11-13T07:56:54;5.70;55.00
21807;DHT22;11065;50.786;7.840;2022-11-13T07:59:40;5.80;55.00
21807;DHT22;11065;50.786;7.840;2022-11-13T08:02:25;5.70;55.00
21807;DHT22;11065;50.786;7.840;2022-11-13T08:05:11;5.80;55.00
21807;DHT22;11065;50.786;7.840;2022-11-13T08:07:57;5.80;55.00
21807;DHT22;11065;50.786;7.840;2022-11-13T08:10:42;5.80;55.10
21807;DHT22;11065;50.786;7.840;2022-11-13T08:13:27;5.80;55.10
21807;DHT22;11065;50.786;7.840;2022-11-13T08:16:13;5.80;55.20
21807;DHT22;11065;50.786;7.840;2022-11-13T08:18:58;5.90;55.30
21807;DHT22;11065;50.786;7.840;2022-11-13T08:21:44;5.90;55.30
21807;DHT22;11065;50.786;7.840;2022-11-13T08:24:29;5.90;55.30
21807;DHT22;11065;50.786;7.840;2022-11-13T08:27:14;5.90;55.30
21807;DHT22;11065;50.786;7.840;2022-11-13T08:30:00;6.00;55.40
21807;DHT22;11065;50.786;7.840;2022-11-13T08:32:46;6.00;55.40
21807;DHT22;11065;50.786;7.840;2022-11-13T08:35:32;6.00;55.40
21807;DHT22;11065;50.786;7.840;2022-11-13T08:38:17;6.00;55.40
21807;DHT22;11065;50.786;7.840;2022-11-13T08:41:04;6.10;55.60
21807;DHT22;11065;50.786;7.840;2022-11-13T08:43:53;6.20;56.00
21807;DHT22;11065;50.786;7.840;2022-11-13T08:46:39;6.40;56.60
21807;DHT22;11065;50.786;7.840;2022-11-13T08:49:24;6.80;58.10
21807;DHT22;11065;50.786;7.840;2022-11-13T08:52:10;7.40;59.20
21807;DHT22;11065;50.786;7.840;2022-11-13T08:54:55;8.30;61.50
21807;DHT22;11065;50.786;7.840;2022-11-13T08:57:41;9.50;64.40
21807;DHT22;11065;50.786;7.840;2022-11-13T09:00:27;10.90;66.00
21807;DHT22;11065;50.786;7.840;2022-11-13T09:03:13;12.40;65.50
21807;DHT22;11065;50.786;7.840;2022-11-13T09:05:58;13.90;64.40
21807;DHT22;11065;50.786;7.840;2022-11-13T09:08:44;15.40;62.50
21807;DHT22;11065;50.786;7.840;2022-11-13T09:11:30;16.80;59.80
21807;DHT22;11065;50.786;7.840;2022-11-13T09:14:15;18.00;58.10
21807;DHT22;11065;50.786;7.840;2022-11-13T09:17:00;19.20;56.60
21807;DHT22;11065;50.786;7.840;2022-11-13T09:19:46;20.30;55.40
21807;DHT22;11065;50.786;7.840;2022-11-13T09:22:32;21.20;54.30
21807;DHT22;11065;50.786;7.840;2022-11-13T09:25:18;22.10;53.00
21807;DHT22;11065;50.786;7.840;2022-11-13T09:28:04;22.70;50.30
21807;DHT22;11065;50.786;7.840;2022-11-13T09:30:50;22.80;47.90
21807;DHT22;11065;50.786;7.840;2022-11-13T09:33:35;22.50;46.50
21807;DHT22;11065;50.786;7.840;2022-11-13T09:36:21;21.90;45.60
21807;DHT22;11065;50.786;7.840;2022-11-13T09:39:07;21.20;44.90
21807;DHT22;11065;50.786;7.840;2022-11-13T09:45:06;19.40;44.10
21807;DHT22;11065;50.786;7.840;2022-11-13T09:47:53;18.60;44.40
21807;DHT22;11065;50.786;7.840;2022-11-13T09:50:38;17.80;45.10
21807;DHT22;11065;50.786;7.840;2022-11-13T09:53:24;17.10;45.40
21807;DHT22;11065;50.786;7.840;2022-11-13T09:56:27;16.50;45.70
21807;DHT22;11065;50.786;7.840;2022-11-13T09:59:33;16.00;45.80
21807;DHT22;11065;50.786;7.840;2022-11-13T10:05:23;15.10;46.80
21807;DHT22;11065;50.786;7.840;2022-11-13T10:08:22;14.80;48.80
21807;DHT22;11065;50.786;7.840;2022-11-13T10:14:20;15.60;52.10
21807;DHT22;11065;50.786;7.840;2022-11-13T10:17:47;16.60;53.00
21807;DHT22;11065;50.786;7.840;2022-11-13T10:20:31;17.80;53.90
21807;DHT22;11065;50.786;7.840;2022-11-13T10:23:25;19.20;54.10
21807;DHT22;11065;50.786;7.840;2022-11-13T10:26:18;20.50;53.80
21807;DHT22;11065;50.786;7.840;2022-11-13T10:29:18;21.80;51.90
21807;DHT22;11065;50.786;7.840;2022-11-13T10:32:16;23.00;49.60
21807;DHT22;11065;50.786;7.840;2022-11-13T10:38:31;24.90;48.20
21807;DHT22;11065;50.786;7.840;2022-11-13T10:41:14;25.70;46.50
21807;DHT22;11065;50.786;7.840;2022-11-13T10:47:14;27.20;46.30
21807;DHT22;11065;50.786;7.840;2022-11-13T10:50:22;27.80;46.00
21807;DHT22;11065;50.786;7.840;2022-11-13T10:53:18;28.40;42.10
21807;DHT22;11065;50.786;7.840;2022-11-13T10:59:14;29.20;40.90
21807;DHT22;11065;50.786;7.840;2022-11-13T11:02:14;29.50;41.30
21807;DHT22;11065;50.786;7.840;2022-11-13T11:05:02;29.80;39.60
21807;DHT22;11065;50.786;7.840;2022-11-13T11:07:48;30.10;40.30
21807;DHT22;11065;50.786;7.840;2022-11-13T11:10:35;30.20;40.10
21807;DHT22;11065;50.786;7.840;2022-11-13T11:13:41;30.40;39.10
21807;DHT22;11065;50.786;7.840;2022-11-13T11:16:27;30.50;39.00
21807;DHT22;11065;50.786;7.840;2022-11-13T11:19:13;30.70;38.50
21807;DHT22;11065;50.786;7.840;2022-11-13T11:22:17;30.80;38.00
21807;DHT22;11065;50.786;7.840;2022-11-13T11:31:22;31.20;35.70
21807;DHT22;11065;50.786;7.840;2022-11-13T11:34:30;31.30;35.90
21807;DHT22;11065;50.786;7.840;2022-11-13T11:37:23;31.40;36.00
21807;DHT22;11065;50.786;7.840;2022-11-13T11:43:15;31.60;35.30
21807;DHT22;11065;50.786;7.840;2022-11-13T11:46:02;31.70;34.70
21807;DHT22;11065;50.786;7.840;2022-11-13T11:48:48;31.70;35.80
21807;DHT22;11065;50.786;7.840;2022-11-13T11:51:42;31.80;35.40
21807;DHT22;11065;50.786;7.840;2022-11-13T11:57:35;32.00;34.00
21807;DHT22;11065;50.786;7.840;2022-11-13T12:00:21;32.10;34.20
21807;DHT22;11065;50.786;7.840;2022-11-13T12:03:29;32.00;34.10
21807;DHT22;11065;50.786;7.840;2022-11-13T12:09:28;31.90;32.40
21807;DHT22;11065;50.786;7.840;2022-11-13T12:21:32;31.70;31.10
21807;DHT22;11065;50.786;7.840;2022-11-13T12:33:39;31.60;31.20
21807;DHT22;11065;50.786;7.840;2022-11-13T12:36:27;31.60;30.90
21807;DHT22;11065;50.786;7.840;2022-11-13T12:39:41;31.60;31.40
21807;DHT22;11065;50.786;7.840;2022-11-13T12:42:33;31.60;29.90
21807;DHT22;11065;50.786;7.840;2022-11-13T12:45:50;31.60;30.50
21807;DHT22;11065;50.786;7.840;2022-11-13T12:51:22;31.50;30.40
21807;DHT22;11065;50.786;7.840;2022-11-13T12:54:09;31.50;30.40
21807;DHT22;11065;50.786;7.840;2022-11-13T12:57:15;31.50;29.80
21807;DHT22;11065;50.786;7.840;2022-11-13T13:00:24;31.50;28.90
21807;DHT22;11065;50.786;7.840;2022-11-13T13:09:47;31.60;28.50
21807;DHT22;11065;50.786;7.840;2022-11-13T13:21:17;31.70;28.30
21807;DHT22;11065;50.786;7.840;2022-11-13T13:24:23;31.60;27.90
21807;DHT22;11065;50.786;7.840;2022-11-13T13:27:22;31.60;27.70
21807;DHT22;11065;50.786;7.840;2022-11-13T13:30:20;31.50;27.30
21807;DHT22;11065;50.786;7.840;2022-11-13T13:39:26;31.40;27.30
21807;DHT22;11065;50.786;7.840;2022-11-13T13:42:38;31.30;27.20
21807;DHT22;11065;50.786;7.840;2022-11-13T13:45:30;31.20;27.10
21807;DHT22;11065;50.786;7.840;2022-11-13T13:48:20;31.10;27.60
21807;DHT22;11065;50.786;7.840;2022-11-13T13:54:17;31.00;27.20
21807;DHT22;11065;50.786;7.840;2022-11-13T13:57:03;30.90;27.30
21807;DHT22;11065;50.786;7.840;2022-11-13T13:59:49;30.80;27.50
21807;DHT22;11065;50.786;7.840;2022-11-13T14:02:44;30.60;27.30
21807;DHT22;11065;50.786;7.840;2022-11-13T14:05:33;30.50;27.00
21807;DHT22;11065;50.786;7.840;2022-11-13T14:08:21;30.40;27.20
21807;DHT22;11065;50.786;7.840;2022-11-13T14:11:22;30.20;27.10
21807;DHT22;11065;50.786;7.840;2022-11-13T14:14:19;30.10;26.90
21807;DHT22;11065;50.786;7.840;2022-11-13T14:17:07;29.90;27.10
21807;DHT22;11065;50.786;7.840;2022-11-13T14:19:53;29.70;27.20
21807;DHT22;11065;50.786;7.840;2022-11-13T14:22:41;29.60;27.30
21807;DHT22;11065;50.786;7.840;2022-11-13T14:25:27;29.40;27.20
21807;DHT22;11065;50.786;7.840;2022-11-13T14:28:18;29.20;27.20
21807;DHT22;11065;50.786;7.840;2022-11-13T14:31:09;29.00;27.20
21807;DHT22;11065;50.786;7.840;2022-11-13T14:33:56;28.60;27.00
21807;DHT22;11065;50.786;7.840;2022-11-13T14:36:44;28.30;27.10
21807;DHT22;11065;50.786;7.840;2022-11-13T14:39:31;27.90;27.10
21807;DHT22;11065;50.786;7.840;2022-11-13T14:42:27;27.40;27.10
21807;DHT22;11065;50.786;7.840;2022-11-13T14:45:13;26.80;27.00
21807;DHT22;11065;50.786;7.840;2022-11-13T14:48:20;26.40;27.10
21807;DHT22;11065;50.786;7.840;2022-11-13T14:51:18;25.80;27.20
21807;DHT22;11065;50.786;7.840;2022-11-13T14:54:06;25.30;27.30
21807;DHT22;11065;50.786;7.840;2022-11-13T14:56:53;24.80;27.30
21807;DHT22;11065;50.786;7.840;2022-11-13T14:59:39;24.40;27.50
21807;DHT22;11065;50.786;7.840;2022-11-13T15:02:27;23.90;27.60
21807;DHT22;11065;50.786;7.840;2022-11-13T15:05:13;23.50;27.90
21807;DHT22;11065;50.786;7.840;2022-11-13T15:07:58;23.00;28.00
21807;DHT22;11065;50.786;7.840;2022-11-13T15:10:43;22.60;28.10
21807;DHT22;11065;50.786;7.840;2022-11-13T15:13:29;22.20;28.30
21807;DHT22;11065;50.786;7.840;2022-11-13T15:16:18;21.80;28.40
21807;DHT22;11065;50.786;7.840;2022-11-13T15:19:12;21.50;28.60
21807;DHT22;11065;50.786;7.840;2022-11-13T15:22:00;21.20;28.80
21807;DHT22;11065;50.786;7.840;2022-11-13T15:25:17;20.80;28.90
21807;DHT22;11065;50.786;7.840;2022-11-13T15:28:03;20.50;29.10
21807;DHT22;11065;50.786;7.840;2022-11-13T15:30:48;20.20;29.20
21807;DHT22;11065;50.786;7.840;2022-11-13T15:33:34;19.90;29.30
21807;DHT22;11065;50.786;7.840;2022-11-13T15:36:20;19.60;29.50
21807;DHT22;11065;50.786;7.840;2022-11-13T15:39:06;19.40;29.60
21807;DHT22;11065;50.786;7.840;2022-11-13T15:42:00;19.20;29.80
21807;DHT22;11065;50.786;7.840;2022-11-13T15:44:46;18.90;29.90
21807;DHT22;11065;50.786;7.840;2022-11-13T15:47:34;18.70;30.00
21807;DHT22;11065;50.786;7.840;2022-11-13T15:50:20;18.50;30.20
21807;DHT22;11065;50.786;7.840;2022-11-13T15:53:08;18.40;30.40
21807;DHT22;11065;50.786;7.840;2022-11-13T15:55:56;18.20;30.50
21807;DHT22;11065;50.786;7.840;2022-11-13T15:58:47;18.00;30.50
21807;DHT22;11065;50.786;7.840;2022-11-13T16:01:32;17.80;30.50
21807;DHT22;11065;50.786;7.840;2022-11-13T16:04:17;17.70;30.70
21807;DHT22;11065;50.786;7.840;2022-11-13T16:07:04;17.60;30.80
21807;DHT22;11065;50.786;7.840;2022-11-13T16:09:50;17.40;31.00
21807;DHT22;11065;50.786;7.840;2022-11-13T16:12:35;17.30;31.10
21807;DHT22;11065;50.786;7.840;2022-11-13T16:15:21;17.10;31.10
21807;DHT22;11065;50.786;7.840;2022-11-13T16:18:18;17.00;31.30
21807;DHT22;11065;50.786;7.840;2022-11-13T16:21:05;16.80;31.60
21807;DHT22;11065;50.786;7.840;2022-11-13T16:23:50;16.70;31.50
21807;DHT22;11065;50.786;7.840;2022-11-13T16:26:36;16.60;31.50
21807;DHT22;11065;50.786;7.840;2022-11-13T16:29:23;16.40;31.60
21807;DHT22;11065;50.786;7.840;2022-11-13T16:32:14;16.30;31.80
21807;DHT22;11065;50.786;7.840;2022-11-13T16:35:00;16.20;32.20
21807;DHT22;11065;50.786;7.840;2022-11-13T16:37:46;16.00;32.10
21807;DHT22;11065;50.786;7.840;2022-11-13T16:40:31;15.90;32.20
21807;DHT22;11065;50.786;7.840;2022-11-13T16:43:17;15.80;32.40
21807;DHT22;11065;50.786;7.840;2022-11-13T16:49:00;15.50;32.90
21807;DHT22;11065;50.786;7.840;2022-11-13T16:51:45;15.40;32.80
21807;DHT22;11065;50.786;7.840;2022-11-13T16:54:31;15.30;32.90
21807;DHT22;11065;50.786;7.840;2022-11-13T16:57:16;15.20;32.90
21807;DHT22;11065;50.786;7.840;2022-11-13T17:00:05;15.00;33.10
21807;DHT22;11065;50.786;7.840;2022-11-13T17:02:51;14.90;33.40
21807;DHT22;11065;50.786;7.840;2022-11-13T17:05:36;14.80;33.40
21807;DHT22;11065;50.786;7.840;2022-11-13T17:08:22;14.70;33.60
21807;DHT22;11065;50.786;7.840;2022-11-13T17:11:10;14.50;33.80
21807;DHT22;11065;50.786;7.840;2022-11-13T17:13:59;14.50;34.00
21807;DHT22;11065;50.786;7.840;2022-11-13T17:16:44;14.30;34.00
21807;DHT22;11065;50.786;7.840;2022-11-13T17:19:30;14.20;34.00
21807;DHT22;11065;50.786;7.840;2022-11-13T17:22:16;14.10;34.20
21807;DHT22;11065;50.786;7.840;2022-11-13T17:25:01;14.00;34.30
21807;DHT22;11065;50.786;7.840;2022-11-13T17:27:46;13.90;34.40
21807;DHT22;11065;50.786;7.840;2022-11-13T17:30:32;13.80;34.50
21807;DHT22;11065;50.786;7.840;2022-11-13T17:33:17;13.70;34.60
21807;DHT22;11065;50.786;7.840;2022-11-13T17:36:03;13.60;34.80
21807;DHT22;11065;50.786;7.840;2022-11-13T17:38:48;13.50;35.00
21807;DHT22;11065;50.786;7.840;2022-11-13T17:41:34;13.40;35.10
21807;DHT22;11065;50.786;7.840;2022-11-13T17:44:21;13.30;35.20
21807;DHT22;11065;50.786;7.840;2022-11-13T17:47:06;13.20;35.20
21807;DHT22;11065;50.786;7.840;2022-11-13T17:49:52;13.20;35.40
21807;DHT22;11065;50.786;7.840;2022-11-13T17:52:37;13.10;35.50
21807;DHT22;11065;50.786;7.840;2022-11-13T17:55:23;13.00;35.60
21807;DHT22;11065;50.786;7.840;2022-11-13T17:58:08;12.90;35.70
21807;DHT22;11065;50.786;7.840;2022-11-13T18:01:05;12.80;35.80
21807;DHT22;11065;50.786;7.840;2022-11-13T18:03:54;12.70;36.20
21807;DHT22;11065;50.786;7.840;2022-11-13T18:06:40;12.60;36.00
21807;DHT22;11065;50.786;7.840;2022-11-13T18:09:26;12.50;35.90
21807;DHT22;11065;50.786;7.840;2022-11-13T18:12:11;12.40;36.00
21807;DHT22;11065;50.786;7.840;2022-11-13T18:14:57;12.40;36.10
21807;DHT22;11065;50.786;7.840;2022-11-13T18:17:42;12.30;36.20
21807;DHT22;11065;50.786;7.840;2022-11-13T18:20:28;12.20;36.30
21807;DHT22;11065;50.786;7.840;2022-11-13T18:23:14;12.20;36.40
21807;DHT22;11065;50.786;7.840;2022-11-13T18:26:13;12.10;36.50
21807;DHT22;11065;50.786;7.840;2022-11-13T18:29:00;12.00;37.10
21807;DHT22;11065;50.786;7.840;2022-11-13T18:31:45;11.90;36.70
21807;DHT22;11065;50.786;7.840;2022-11-13T18:34:30;11.80;36.90
21807;DHT22;11065;50.786;7.840;2022-11-13T18:37:16;11.80;37.00
21807;DHT22;11065;50.786;7.840;2022-11-13T18:40:02;11.70;37.10
21807;DHT22;11065;50.786;7.840;2022-11-13T18:42:49;11.60;37.10
21807;DHT22;11065;50.786;7.840;2022-11-13T18:45:34;11.60;37.20
21807;DHT22;11065;50.786;7.840;2022-11-13T18:48:20;11.50;37.20
21807;DHT22;11065;50.786;7.840;2022-11-13T18:51:11;11.40;37.30
21807;DHT22;11065;50.786;7.840;2022-11-13T18:53:57;11.30;37.40
21807;DHT22;11065;50.786;7.840;2022-11-13T18:56:42;11.30;37.50
21807;DHT22;11065;50.786;7.840;2022-11-13T18:59:27;11.20;37.50
21807;DHT22;11065;50.786;7.840;2022-11-13T19:02:13;11.10;37.60
21807;DHT22;11065;50.786;7.840;2022-11-13T19:04:58;11.00;37.70
21807;DHT22;11065;50.786;7.840;2022-11-13T19:07:43;11.00;37.80
21807;DHT22;11065;50.786;7.840;2022-11-13T19:10:29;10.90;37.80
21807;DHT22;11065;50.786;7.840;2022-11-13T19:13:14;10.80;37.80
21807;DHT22;11065;50.786;7.840;2022-11-13T19:16:09;10.80;38.00
21807;DHT22;11065;50.786;7.840;2022-11-13T19:18:57;10.70;38.30